Terminal Aerodrome Forecast
Issued by NWS

Home | Current Version | Previous Version | Text Only | Print | Product List | Glossary On
Versions: 1 2 3 4 5 6 7 8 9 10 11 12
000
FTUS46 KSTO 280500
TAFRBL
TAF
KRBL 280527Z 2806/2906 34011KT P6SM FEW060 BKN200
     FM281800 34012G20KT P6SM SKC
     FM290300 29005KT P6SM SKC=

USA.gov is the U.S. government's official web portal to all federal, state and local government web resources and services.